Fort Pierce, FL

18:07 EDT le 22 mai 2015 (GMT -0400)
Saint Lucie County International | | Change Station
CLOSE
Current Station
Aéroport
Location: Ft Pierce,
Altitude: 23 ft
Stations météo à proximité

Alt. 23 ft 27.50 °N, 80.38 °W | Updated 4 minutes ago

Nuageux
Nuageux
83 ° F
Paraît 90 ° F
N
6
Vent Variable Vent de ENE

Aujourd'hui
Haut(e) -- | Bas -- ° F
--% Risque de précip.
Hier
Haut(e) -- | Bas -- ° F
Precip. -- pouce
6:29 AM 8:07 PM
Lune montante, 24% visible
Pression 30.08 pouce
Visibilité 10.0 Miles terrestres
Nuages Nuages épars 1700 ft
indice de chaleur 90 ° F
Point de rosée 75 ° F
Humidité 77%
Précipitations 0.00 pouce
Profondeur de la couche neigeuse Non disponible.
UV 2 sur 12
Pollen 3.90 sur 12
Qualité de l'air Non disponible.
Flu Activity Sporadic
SPECI KFPR 222203Z 07005KT 10SM SCT017 28/24 A3008 RMK AO2 T02830239

More Conditions Fewer Conditions

Pression 30.08 pouce
Visibilité 10.0 Miles terrestres
Nuages Nuages épars 1700 ft
indice de chaleur 90 ° F
Point de rosée 75 ° F
Humidité 77%
Précipitations 0.00 pouce
Profondeur de la couche neigeuse Non disponible.
UV 2 sur 12
Pollen 3.90 sur 12
Qualité de l'air Non disponible.
Flu Activity Sporadic
SPECI KFPR 222203Z 07005KT 10SM SCT017 28/24 A3008 RMK AO2 T02830239

More Conditions Fewer Conditions

Nowcast | as of 5:20 PM EDT on May 22, 2015

Isolated showers and thunderstorms will continue across inland sections of the Treasure Coast and Lake Okeechobee...mainly west of I-95 and the Turnpike. A few additional showers and thunderstorms will develop across Osceola...Orange...and Southern Lake counties as the west and East Coast sea breezes interact this evening towards sunset. Brief heavy downpours and dangerous cloud-to-ground lightning will be the primary threats...however...an isolated strong storm could also produce gusty winds and small hail. Additional details...including graphics are available online at: http://www.Srh.NOAA.Gov/mlb/blog.Php

×

10-Day Weather Forecast

Almanac

Astronomie

May. 22, 2015 Lever Coucher
Temps réel
Crépuscule civil
Crépuscule nautique
Crépuscule astronomique
Lune
Durée de lumière visible
Longueur du jour
Tomorrow will be .
, % of the Moon is Illuminated

Extrêmes aujourd'hui

State Highs State Lows

Community

WunderPhotos

Upload Photos

1,823,318 Photos téléchargées !

WunderBlogs® & News

Nearby

Qualité de l'air

  Qualité de l'air Indice de la qualité de l'air Polluant
Not available.

Épaisseur de neige

Station Depth Altitude

Activité sismique

Ville Distance Mag. Time & Date
Minimum magnitude displayed is 2.5.

Températures des eaux côtières

Lieu Température

Stations

Stations météo à proximité

Emplacement de la station Température Refroidissement éolien Point de rosée Humidité Vent Precip. Alt. Mise à jour Type